Informes METAR cercanos

 

LEBZ - Talavera Ab/Bada, Spain
Distancia desde la estación: ONO 43km
Actualización: 25/08/2019 19:00
Poco nuboso(1/8)
Poco nuboso(1/8)
 Viento del O
Viento: O 24 km/h
Temperatura: 32°C
Rocío: 12°C
Humedad: 29%
Barómetro: 1011 hPa
Nubes: Poco nuboso , 1/8
Visibilidad: 10 km
Detalle nubosidad: Poco nuboso , 1/8 1494 m
2019/08/25 17:00 LEBZ 251700Z 28013KT 9999 FEW049 32/12 Q1011